Kolmaarden Stroemsfors, Sweden

5:51 PM CEST on October 21, 2014 (GMT +0200)
Krokek | Change Station
CLOSE
Current Station
Personal Weather Station
Location: Kolmården, Östergötlands län
Elevation: 161 ft
Nearby Weather Stations

Elev 161 ft 58.67 °N, 16.36 °E | Updated 15 seconds ago

Overcast
Overcast
46.9 °F
Feels Like 47 °F
N
0.7
Wind Variable Wind from NW
Gusts 3.1 mph

Today
High -- | Low -- °F
--% Chance of Precip.
Yesterday
High -- | Low -- °F
Precip. -- in
7:44 AM 5:32 PM
Waning Crescent, 5% visible
Pressure 29.62 in
Visibility 3.1 miles
Clouds Mostly Cloudy 600 ft
Overcast 1400 ft
Windchill 47 °F
Dew Point 45 °F
Humidity 94%
Rainfall 0.05 in
Snow Depth Not available.
UV 0 out of 12
Pollen Not available.
Air Quality Not available.
Flu Activity Not available.
METAR ESSP 211520Z 10010KT 5000 BR BKN006 OVC014 08/08 Q1003 REDZ

More Conditions Fewer Conditions

Pressure 29.62 in
Visibility 3.1 miles
Clouds Mostly Cloudy 600 ft
Overcast 1400 ft
Windchill 47 °F
Dew Point 45 °F
Humidity 94%
Rainfall 0.05 in
Snow Depth Not available.
UV 0 out of 12
Pollen Not available.
Air Quality Not available.
Flu Activity Not available.
METAR ESSP 211520Z 10010KT 5000 BR BKN006 OVC014 08/08 Q1003 REDZ

More Conditions Fewer Conditions

10-Day Weather Forecast

Almanac

Astronomy

Oct. 21, 2014 Rise Set
Actual Time 7:44 AM CEST 5:32 PM CEST
Civil Twilight 7:03 AM CEST 6:14 PM CEST
Nautical Twilight 6:16 AM CEST 7:00 PM CEST
Astronomical Twilight 5:30 AM CEST 7:46 PM CEST
Moon 4:39 AM CEST 4:44 PM CEST
Length of Visible Light 11h 10m
Length of Day
9h 48m
Tomorrow will be 5m 2s shorter.
Waning Crescent, 5% of the Moon is Illuminated
Today
Waning Crescent
Oct 23
New
Oct 30
First Quarter
Nov 6
Full
Nov 14
Last Quarter

Today's Extremes

Country Highs Country Lows

Community

WunderPhotos

Upload Photos

1,763,700 photos uploaded!

WunderBlogs® & News

Nearby

Snow Depth

Not available.

Earthquake Activity

City Distance Mag. Time & Date
No recent earthquake activity has been reported nearby.
Minimum magnitude displayed is 2.5.

Coastal Water Temperatures

Place Temperature
No Stations Reporting

Nearby Weather Stations